ZLXY METAR and TAF | Updated Today

ZLXY METAR

Xi'an Xianyang International Airport

Observation time: 31 min. ago

ZLXY 052000Z 00000MPS 3000 HZ NSC M03/M07 Q1019 NOSIG

Need help? Read our tutorial on how to read METARs or read the parsed version below.

Xi'an Xianyang International Airport (ZLXY) METAR

  • Weather conditions on Sun, 05 Feb 2023 20:00:00 +0000 (31 min. ago):
  • Present conditions: Haze
  • Clouds: No significant clouds are observed
  • Visibility: 3000 meters
  • Wind: Calm
  • Temperature: -3 celsius
  • Dew point: -7 celsius
  • Pressure: 1019 millibars
  • Remarks: None


Useful to know...

ZLXY TAF

Xi'an Xianyang International Airport

TAF ZLXY 051506Z 0518/0618 29003MPS 3000 HZ NSC TX12/0607Z TNM02/0521Z
Observation time: 5:25 hr. ago
Need help? Read our tutorial on how to read TAFs or read the parsed version below.

Parsed version of TAF for Xi'an Xianyang International Airport (ZLXY)

  • From 05 February at 18:00 UTC, to day 06 of the month at 18:00 UTC
  • Clouds: No significant clouds are observed
  • Visibility: 3000 meters
  • Wind: 290 degrees at 3
  • Other: Haze